Airfield :
LOGIN :

Register | Disclaimer

   EN    FR    IT 

 










Legend :    VFR   Marginal VFR   IFR   Intensive IFR   Very Intensive IFR
Visi :
Ceiling :
>= 8 km
>= 3000ft
5 to 8 km
1000 to 3000 ft
1500m to 5 km
500 to 1000 ft
800 to 1500m
200 to 500 ft
< 800m
< 200 ft
Symbols :   Thunderstorms  Fog  Heavy snow  Heavy precipitations  Wind > 20 kt
SIGMETs :     Misc.  Thunderstorms  Icing  Turbulence  Mountain Waves  Volcanic Ashes






- Airport Elevation : 126 ft
- IATA code : TIA


LATI - Rinas Mother Teresa Arpt - Tirana

CURRENT METAR :
  • 200120Z 11004KT 060V180 9999 -RA FEW011 SCT039 BKN057 13/13 Q1013 NOSIG

EXPIRED METARs :
  • 200050Z 10003KT 030V130 7000 +RA FEW038 BKN053 OVC064 13/12 Q1014 NOSIG
  • 200020Z 12005KT 8000 RA FEW017 BKN042 OVC070 13/12 Q1015 NOSIG
  • 192350Z 12005KT 090V170 9999 RA FEW017 BKN041 OVC080 14/12 Q1015 NOSIG
  • 192320Z 23010KT 190V270 9999 -RA FEW045 SCT065 BKN085 15/12 Q1015 NOSIG
  • 192250Z 24011G22KT 200V260 9999 -RA SCT068 BKN088 16/12 Q1015 NOSIG

TAF TAF LATI
Valid from the 20 at 00:00 until the 21 at 00:00 UTC


192300Z 2000/2024 23010KT 9999 RA FEW030CB SCT050 BKN080 TX18/2012Z TN08/2020Z
PROB40
TEMPO 2001/2007 16010G20KT 4000 TSRA SCT020CB OVC040
BECMG 2009/2011 VRB06KT FEW040 SCT100



MET'MAP, your aeronautical weather chart ! - Copyright ORBIFLY December 2007 - Disclaimer

ORBIFLY MET'MAP TEAM :

Programming & Development : Alexandra Zaïnal
Concept & Development : Baudouin d'Aumeries
Co-Development & Prog : Marc-Olivier Méhu
Technical & hardware support : Manuel Goepfert

Contact : metmap@orbifly.com




SOURCES & CREDITS :

   NOAA